sensor_id;sensor_type;location;lat;lon;timestamp;temperature;humidity
8979;DHT22;4524;51.364;5.448;2022-11-15T00:02:10;9.60;99.90
8979;DHT22;4524;51.364;5.448;2022-11-15T00:04:56;9.60;99.90
8979;DHT22;4524;51.364;5.448;2022-11-15T00:07:43;9.60;99.90
8979;DHT22;4524;51.364;5.448;2022-11-15T00:10:55;9.70;99.90
8979;DHT22;4524;51.364;5.448;2022-11-15T00:13:41;9.70;98.70
8979;DHT22;4524;51.364;5.448;2022-11-15T00:16:28;9.70;99.90
8979;DHT22;4524;51.364;5.448;2022-11-15T00:19:14;9.70;99.90
8979;DHT22;4524;51.364;5.448;2022-11-15T00:22:01;9.80;95.80
8979;DHT22;4524;51.364;5.448;2022-11-15T00:24:47;9.80;93.50
8979;DHT22;4524;51.364;5.448;2022-11-15T00:27:35;9.80;99.90
8979;DHT22;4524;51.364;5.448;2022-11-15T00:30:22;9.80;99.90
8979;DHT22;4524;51.364;5.448;2022-11-15T00:33:08;9.80;99.80
8979;DHT22;4524;51.364;5.448;2022-11-15T00:36:00;9.80;99.90
8979;DHT22;4524;51.364;5.448;2022-11-15T00:38:47;9.90;99.90
8979;DHT22;4524;51.364;5.448;2022-11-15T00:41:33;9.90;99.90
8979;DHT22;4524;51.364;5.448;2022-11-15T00:44:21;9.90;99.90
8979;DHT22;4524;51.364;5.448;2022-11-15T00:47:08;9.90;99.90
8979;DHT22;4524;51.364;5.448;2022-11-15T00:49:54;9.90;99.90
8979;DHT22;4524;51.364;5.448;2022-11-15T00:52:41;10.00;99.90
8979;DHT22;4524;51.364;5.448;2022-11-15T00:55:28;10.00;99.90
8979;DHT22;4524;51.364;5.448;2022-11-15T00:58:14;10.00;99.90
8979;DHT22;4524;51.364;5.448;2022-11-15T01:01:10;10.10;99.90
8979;DHT22;4524;51.364;5.448;2022-11-15T01:03:57;10.20;99.90
8979;DHT22;4524;51.364;5.448;2022-11-15T01:06:45;10.20;99.90
8979;DHT22;4524;51.364;5.448;2022-11-15T01:09:32;10.30;99.90
8979;DHT22;4524;51.364;5.448;2022-11-15T01:12:18;10.40;1.00
8979;DHT22;4524;51.364;5.448;2022-11-15T01:15:06;10.40;1.00
8979;DHT22;4524;51.364;5.448;2022-11-15T01:17:54;10.40;1.00
8979;DHT22;4524;51.364;5.448;2022-11-15T01:20:41;10.50;1.00
8979;DHT22;4524;51.364;5.448;2022-11-15T01:23:27;10.50;1.00
8979;DHT22;4524;51.364;5.448;2022-11-15T01:26:15;10.60;99.90
8979;DHT22;4524;51.364;5.448;2022-11-15T01:29:01;10.60;99.90
8979;DHT22;4524;51.364;5.448;2022-11-15T01:31:48;10.70;96.20
8979;DHT22;4524;51.364;5.448;2022-11-15T01:34:36;10.70;99.90
8979;DHT22;4524;51.364;5.448;2022-11-15T01:37:22;10.70;99.90
8979;DHT22;4524;51.364;5.448;2022-11-15T01:40:09;10.80;99.90
8979;DHT22;4524;51.364;5.448;2022-11-15T01:42:56;10.80;99.90
8979;DHT22;4524;51.364;5.448;2022-11-15T01:45:43;10.80;99.90
8979;DHT22;4524;51.364;5.448;2022-11-15T01:48:33;10.90;98.30
8979;DHT22;4524;51.364;5.448;2022-11-15T01:51:24;10.90;99.90
8979;DHT22;4524;51.364;5.448;2022-11-15T01:54:14;11.00;99.90
8979;DHT22;4524;51.364;5.448;2022-11-15T01:57:05;10.90;99.90
8979;DHT22;4524;51.364;5.448;2022-11-15T01:59:52;11.00;99.90
8979;DHT22;4524;51.364;5.448;2022-11-15T02:02:39;11.00;99.90
8979;DHT22;4524;51.364;5.448;2022-11-15T02:05:25;11.00;99.90
8979;DHT22;4524;51.364;5.448;2022-11-15T02:08:14;11.10;99.90
8979;DHT22;4524;51.364;5.448;2022-11-15T02:11:07;11.10;99.90
8979;DHT22;4524;51.364;5.448;2022-11-15T02:13:55;11.10;99.90
8979;DHT22;4524;51.364;5.448;2022-11-15T02:16:47;11.20;99.90
8979;DHT22;4524;51.364;5.448;2022-11-15T02:20:00;11.20;99.90
8979;DHT22;4524;51.364;5.448;2022-11-15T02:23:04;11.20;99.90
8979;DHT22;4524;51.364;5.448;2022-11-15T02:26:07;11.30;99.90
8979;DHT22;4524;51.364;5.448;2022-11-15T02:29:07;11.30;99.90
8979;DHT22;4524;51.364;5.448;2022-11-15T02:32:03;11.30;99.90
8979;DHT22;4524;51.364;5.448;2022-11-15T02:34:56;11.40;99.90
8979;DHT22;4524;51.364;5.448;2022-11-15T02:37:52;11.40;99.90
8979;DHT22;4524;51.364;5.448;2022-11-15T02:40:46;11.40;99.90
8979;DHT22;4524;51.364;5.448;2022-11-15T02:43:42;11.40;99.90
8979;DHT22;4524;51.364;5.448;2022-11-15T02:46:46;11.40;99.90
8979;DHT22;4524;51.364;5.448;2022-11-15T02:50:08;11.40;99.90
8979;DHT22;4524;51.364;5.448;2022-11-15T02:52:55;11.50;99.90
8979;DHT22;4524;51.364;5.448;2022-11-15T02:55:45;11.50;99.90
8979;DHT22;4524;51.364;5.448;2022-11-15T02:58:51;11.50;99.90
8979;DHT22;4524;51.364;5.448;2022-11-15T03:01:55;11.50;99.90
8979;DHT22;4524;51.364;5.448;2022-11-15T03:04:45;11.50;99.90
8979;DHT22;4524;51.364;5.448;2022-11-15T03:07:44;11.60;99.90
8979;DHT22;4524;51.364;5.448;2022-11-15T03:10:42;11.60;99.90
8979;DHT22;4524;51.364;5.448;2022-11-15T03:13:36;11.60;99.90
8979;DHT22;4524;51.364;5.448;2022-11-15T03:16:27;11.60;99.90
8979;DHT22;4524;51.364;5.448;2022-11-15T03:19:20;11.60;99.90
8979;DHT22;4524;51.364;5.448;2022-11-15T03:22:12;11.60;99.90
8979;DHT22;4524;51.364;5.448;2022-11-15T03:25:04;11.60;99.90
8979;DHT22;4524;51.364;5.448;2022-11-15T03:27:55;11.70;99.90
8979;DHT22;4524;51.364;5.448;2022-11-15T03:30:43;11.70;99.90
8979;DHT22;4524;51.364;5.448;2022-11-15T03:33:30;11.70;99.90
8979;DHT22;4524;51.364;5.448;2022-11-15T03:36:18;11.70;99.90
8979;DHT22;4524;51.364;5.448;2022-11-15T03:39:07;11.70;99.90
8979;DHT22;4524;51.364;5.448;2022-11-15T03:42:06;11.70;99.90
8979;DHT22;4524;51.364;5.448;2022-11-15T03:44:59;11.70;99.90
8979;DHT22;4524;51.364;5.448;2022-11-15T03:47:51;11.80;99.90
8979;DHT22;4524;51.364;5.448;2022-11-15T03:50:39;11.70;99.90
8979;DHT22;4524;51.364;5.448;2022-11-15T03:53:28;11.70;99.90
8979;DHT22;4524;51.364;5.448;2022-11-15T03:56:16;11.70;98.50
8979;DHT22;4524;51.364;5.448;2022-11-15T03:59:04;11.80;99.90
8979;DHT22;4524;51.364;5.448;2022-11-15T04:01:50;11.70;49.10
8979;DHT22;4524;51.364;5.448;2022-11-15T04:04:37;11.70;92.10
8979;DHT22;4524;51.364;5.448;2022-11-15T04:07:23;11.80;99.90
8979;DHT22;4524;51.364;5.448;2022-11-15T04:10:11;11.80;99.90
8979;DHT22;4524;51.364;5.448;2022-11-15T04:12:58;11.80;58.70
8979;DHT22;4524;51.364;5.448;2022-11-15T04:15:45;11.80;52.60
8979;DHT22;4524;51.364;5.448;2022-11-15T04:18:32;11.80;59.70
8979;DHT22;4524;51.364;5.448;2022-11-15T04:21:18;11.80;87.70
8979;DHT22;4524;51.364;5.448;2022-11-15T04:24:22;11.80;62.40
8979;DHT22;4524;51.364;5.448;2022-11-15T04:27:08;11.80;92.80
8979;DHT22;4524;51.364;5.448;2022-11-15T04:29:58;11.80;71.20
8979;DHT22;4524;51.364;5.448;2022-11-15T04:32:47;11.80;87.60
8979;DHT22;4524;51.364;5.448;2022-11-15T04:35:33;11.80;99.90
8979;DHT22;4524;51.364;5.448;2022-11-15T04:38:19;11.80;91.60
8979;DHT22;4524;51.364;5.448;2022-11-15T04:41:06;11.80;99.90
8979;DHT22;4524;51.364;5.448;2022-11-15T04:43:52;11.80;99.90
8979;DHT22;4524;51.364;5.448;2022-11-15T04:46:39;11.80;99.90
8979;DHT22;4524;51.364;5.448;2022-11-15T04:49:26;11.80;99.90
8979;DHT22;4524;51.364;5.448;2022-11-15T04:52:13;11.80;99.90
8979;DHT22;4524;51.364;5.448;2022-11-15T04:55:00;11.90;99.90
8979;DHT22;4524;51.364;5.448;2022-11-15T04:57:59;11.80;99.90
8979;DHT22;4524;51.364;5.448;2022-11-15T05:00:45;11.90;99.90
8979;DHT22;4524;51.364;5.448;2022-11-15T05:03:31;11.90;99.90
8979;DHT22;4524;51.364;5.448;2022-11-15T05:06:37;11.90;99.90
8979;DHT22;4524;51.364;5.448;2022-11-15T05:09:24;11.80;89.50
8979;DHT22;4524;51.364;5.448;2022-11-15T05:12:10;11.90;99.90
8979;DHT22;4524;51.364;5.448;2022-11-15T05:14:57;11.90;99.90
8979;DHT22;4524;51.364;5.448;2022-11-15T05:17:44;11.90;99.90
8979;DHT22;4524;51.364;5.448;2022-11-15T05:20:30;11.90;99.90
8979;DHT22;4524;51.364;5.448;2022-11-15T05:23:19;11.90;99.90
8979;DHT22;4524;51.364;5.448;2022-11-15T05:26:06;11.90;99.90
8979;DHT22;4524;51.364;5.448;2022-11-15T05:28:54;12.00;99.90
8979;DHT22;4524;51.364;5.448;2022-11-15T05:31:41;12.00;99.90
8979;DHT22;4524;51.364;5.448;2022-11-15T05:34:27;11.90;90.10
8979;DHT22;4524;51.364;5.448;2022-11-15T05:37:14;12.00;99.90
8979;DHT22;4524;51.364;5.448;2022-11-15T05:40:03;12.00;79.70
8979;DHT22;4524;51.364;5.448;2022-11-15T05:42:50;12.00;59.50
8979;DHT22;4524;51.364;5.448;2022-11-15T05:45:37;12.00;94.20
8979;DHT22;4524;51.364;5.448;2022-11-15T05:48:23;12.00;99.90
8979;DHT22;4524;51.364;5.448;2022-11-15T05:51:12;11.90;99.90
8979;DHT22;4524;51.364;5.448;2022-11-15T05:54:00;11.90;99.90
8979;DHT22;4524;51.364;5.448;2022-11-15T05:56:48;11.90;99.90
8979;DHT22;4524;51.364;5.448;2022-11-15T05:59:35;11.90;99.90
8979;DHT22;4524;51.364;5.448;2022-11-15T06:02:22;11.90;99.90
8979;DHT22;4524;51.364;5.448;2022-11-15T06:05:09;11.90;99.90
8979;DHT22;4524;51.364;5.448;2022-11-15T06:07:57;11.90;99.90
8979;DHT22;4524;51.364;5.448;2022-11-15T06:10:44;11.90;99.90
8979;DHT22;4524;51.364;5.448;2022-11-15T06:13:31;11.90;99.90
8979;DHT22;4524;51.364;5.448;2022-11-15T06:16:18;11.80;99.90
8979;DHT22;4524;51.364;5.448;2022-11-15T06:19:05;11.90;99.90
8979;DHT22;4524;51.364;5.448;2022-11-15T06:21:52;11.90;99.90
8979;DHT22;4524;51.364;5.448;2022-11-15T06:24:39;11.80;99.90
8979;DHT22;4524;51.364;5.448;2022-11-15T06:27:25;11.80;99.90
8979;DHT22;4524;51.364;5.448;2022-11-15T06:30:13;11.80;76.20
8979;DHT22;4524;51.364;5.448;2022-11-15T06:33:01;11.70;55.50
8979;DHT22;4524;51.364;5.448;2022-11-15T06:35:47;11.70;27.80
8979;DHT22;4524;51.364;5.448;2022-11-15T06:38:34;11.70;15.00
8979;DHT22;4524;51.364;5.448;2022-11-15T06:41:21;11.70;1.00
8979;DHT22;4524;51.364;5.448;2022-11-15T06:44:07;11.70;1.00
8979;DHT22;4524;51.364;5.448;2022-11-15T06:46:55;11.60;1.00
8979;DHT22;4524;51.364;5.448;2022-11-15T06:49:42;11.60;1.00
8979;DHT22;4524;51.364;5.448;2022-11-15T06:52:28;11.50;1.00
8979;DHT22;4524;51.364;5.448;2022-11-15T06:55:17;11.50;1.00
8979;DHT22;4524;51.364;5.448;2022-11-15T06:58:04;11.50;1.00
8979;DHT22;4524;51.364;5.448;2022-11-15T07:00:50;11.40;1.00
8979;DHT22;4524;51.364;5.448;2022-11-15T07:03:40;11.50;1.00
8979;DHT22;4524;51.364;5.448;2022-11-15T07:06:27;11.40;1.00
8979;DHT22;4524;51.364;5.448;2022-11-15T07:09:13;11.40;1.00
8979;DHT22;4524;51.364;5.448;2022-11-15T07:12:00;11.40;1.00
8979;DHT22;4524;51.364;5.448;2022-11-15T07:14:52;11.30;1.00
8979;DHT22;4524;51.364;5.448;2022-11-15T07:17:38;11.30;10.40
8979;DHT22;4524;51.364;5.448;2022-11-15T07:20:26;11.40;1.00
8979;DHT22;4524;51.364;5.448;2022-11-15T07:23:13;11.40;1.00
8979;DHT22;4524;51.364;5.448;2022-11-15T07:25:59;11.40;1.00
8979;DHT22;4524;51.364;5.448;2022-11-15T07:28:47;11.40;1.00
8979;DHT22;4524;51.364;5.448;2022-11-15T07:31:33;11.40;1.00
8979;DHT22;4524;51.364;5.448;2022-11-15T07:34:19;11.30;1.00
8979;DHT22;4524;51.364;5.448;2022-11-15T07:37:07;11.30;1.00
8979;DHT22;4524;51.364;5.448;2022-11-15T07:39:54;11.30;1.00
8979;DHT22;4524;51.364;5.448;2022-11-15T07:42:41;11.30;1.00
8979;DHT22;4524;51.364;5.448;2022-11-15T07:45:41;11.20;1.00
8979;DHT22;4524;51.364;5.448;2022-11-15T07:48:28;11.20;1.00
8979;DHT22;4524;51.364;5.448;2022-11-15T07:51:28;11.20;1.00
8979;DHT22;4524;51.364;5.448;2022-11-15T07:54:15;11.20;26.40
8979;DHT22;4524;51.364;5.448;2022-11-15T07:57:02;11.20;7.40
8979;DHT22;4524;51.364;5.448;2022-11-15T07:59:52;11.20;5.50
8979;DHT22;4524;51.364;5.448;2022-11-15T08:02:38;11.20;1.00
8979;DHT22;4524;51.364;5.448;2022-11-15T08:05:25;11.10;19.20
8979;DHT22;4524;51.364;5.448;2022-11-15T08:08:12;11.20;21.50
8979;DHT22;4524;51.364;5.448;2022-11-15T08:11:00;11.20;22.90
8979;DHT22;4524;51.364;5.448;2022-11-15T08:13:47;11.10;1.00
8979;DHT22;4524;51.364;5.448;2022-11-15T08:16:33;11.10;1.30
8979;DHT22;4524;51.364;5.448;2022-11-15T08:19:20;11.10;50.80
8979;DHT22;4524;51.364;5.448;2022-11-15T08:22:07;11.10;17.50
8979;DHT22;4524;51.364;5.448;2022-11-15T08:24:53;11.00;13.40
8979;DHT22;4524;51.364;5.448;2022-11-15T08:27:41;11.10;39.60
8979;DHT22;4524;51.364;5.448;2022-11-15T08:30:28;11.10;7.10
8979;DHT22;4524;51.364;5.448;2022-11-15T08:33:14;11.10;36.30
8979;DHT22;4524;51.364;5.448;2022-11-15T08:36:01;11.20;5.70
8979;DHT22;4524;51.364;5.448;2022-11-15T08:38:48;11.10;1.00
8979;DHT22;4524;51.364;5.448;2022-11-15T08:41:37;11.10;1.00
8979;DHT22;4524;51.364;5.448;2022-11-15T08:44:25;11.20;1.00
8979;DHT22;4524;51.364;5.448;2022-11-15T08:47:12;11.30;1.00
8979;DHT22;4524;51.364;5.448;2022-11-15T08:49:59;11.30;1.00
8979;DHT22;4524;51.364;5.448;2022-11-15T08:52:45;11.40;1.00
8979;DHT22;4524;51.364;5.448;2022-11-15T08:55:36;11.50;99.90
8979;DHT22;4524;51.364;5.448;2022-11-15T08:58:22;11.50;99.90
8979;DHT22;4524;51.364;5.448;2022-11-15T09:01:16;11.50;99.90
8979;DHT22;4524;51.364;5.448;2022-11-15T09:04:03;11.60;99.90
8979;DHT22;4524;51.364;5.448;2022-11-15T09:06:50;11.50;99.90
8979;DHT22;4524;51.364;5.448;2022-11-15T09:09:37;11.60;99.90
8979;DHT22;4524;51.364;5.448;2022-11-15T09:12:24;11.60;99.90
8979;DHT22;4524;51.364;5.448;2022-11-15T09:15:10;11.70;99.90
8979;DHT22;4524;51.364;5.448;2022-11-15T09:17:59;11.70;99.90
8979;DHT22;4524;51.364;5.448;2022-11-15T09:20:46;11.80;90.60
8979;DHT22;4524;51.364;5.448;2022-11-15T09:23:33;11.90;43.80
8979;DHT22;4524;51.364;5.448;2022-11-15T09:26:19;11.90;24.40
8979;DHT22;4524;51.364;5.448;2022-11-15T09:29:06;12.00;1.00
8979;DHT22;4524;51.364;5.448;2022-11-15T09:31:52;12.10;1.00
8979;DHT22;4524;51.364;5.448;2022-11-15T09:34:40;12.10;1.00
8979;DHT22;4524;51.364;5.448;2022-11-15T09:37:26;12.20;1.00
8979;DHT22;4524;51.364;5.448;2022-11-15T09:40:14;12.10;99.90
8979;DHT22;4524;51.364;5.448;2022-11-15T09:43:14;12.20;99.90
8979;DHT22;4524;51.364;5.448;2022-11-15T09:46:10;12.10;99.90
8979;DHT22;4524;51.364;5.448;2022-11-15T09:48:59;12.10;99.90
8979;DHT22;4524;51.364;5.448;2022-11-15T09:51:51;12.00;99.90
8979;DHT22;4524;51.364;5.448;2022-11-15T09:54:26;12.10;99.90
8979;DHT22;4524;51.364;5.448;2022-11-15T09:57:17;12.10;99.90
8979;DHT22;4524;51.364;5.448;2022-11-15T09:59:56;12.10;99.90
8979;DHT22;4524;51.364;5.448;2022-11-15T10:03:09;12.10;99.90
8979;DHT22;4524;51.364;5.448;2022-11-15T10:05:39;12.10;99.90
8979;DHT22;4524;51.364;5.448;2022-11-15T10:08:20;12.10;99.90
8979;DHT22;4524;51.364;5.448;2022-11-15T10:10:55;12.10;99.90
8979;DHT22;4524;51.364;5.448;2022-11-15T10:13:46;12.10;99.90
8979;DHT22;4524;51.364;5.448;2022-11-15T10:16:27;12.10;99.90
8979;DHT22;4524;51.364;5.448;2022-11-15T10:19:05;12.10;99.90
8979;DHT22;4524;51.364;5.448;2022-11-15T10:21:45;12.10;99.90
8979;DHT22;4524;51.364;5.448;2022-11-15T10:24:25;12.10;99.90
8979;DHT22;4524;51.364;5.448;2022-11-15T10:26:55;12.10;99.90
8979;DHT22;4524;51.364;5.448;2022-11-15T10:29:24;12.10;99.90
8979;DHT22;4524;51.364;5.448;2022-11-15T10:31:53;12.10;99.90
8979;DHT22;4524;51.364;5.448;2022-11-15T10:34:22;12.10;99.90
8979;DHT22;4524;51.364;5.448;2022-11-15T10:36:55;12.20;99.90
8979;DHT22;4524;51.364;5.448;2022-11-15T10:39:25;12.10;99.90
8979;DHT22;4524;51.364;5.448;2022-11-15T10:41:54;12.20;99.90
8979;DHT22;4524;51.364;5.448;2022-11-15T10:44:24;12.30;99.90
8979;DHT22;4524;51.364;5.448;2022-11-15T10:47:24;12.40;99.90
8979;DHT22;4524;51.364;5.448;2022-11-15T10:50:04;12.40;99.90
8979;DHT22;4524;51.364;5.448;2022-11-15T10:52:34;12.40;99.90
8979;DHT22;4524;51.364;5.448;2022-11-15T10:55:22;12.40;99.90
8979;DHT22;4524;51.364;5.448;2022-11-15T10:57:54;12.50;99.90
8979;DHT22;4524;51.364;5.448;2022-11-15T11:00:34;12.60;99.90
8979;DHT22;4524;51.364;5.448;2022-11-15T11:03:04;12.60;99.90
8979;DHT22;4524;51.364;5.448;2022-11-15T11:05:35;12.60;99.90
8979;DHT22;4524;51.364;5.448;2022-11-15T11:08:21;12.70;99.90
8979;DHT22;4524;51.364;5.448;2022-11-15T11:10:54;12.70;99.90
8979;DHT22;4524;51.364;5.448;2022-11-15T11:13:30;12.60;99.90
8979;DHT22;4524;51.364;5.448;2022-11-15T11:18:58;12.60;99.90
8979;DHT22;4524;51.364;5.448;2022-11-15T11:21:40;12.60;99.90
8979;DHT22;4524;51.364;5.448;2022-11-15T11:24:15;12.70;99.90
8979;DHT22;4524;51.364;5.448;2022-11-15T11:26:55;12.90;99.90
8979;DHT22;4524;51.364;5.448;2022-11-15T11:29:33;12.90;99.90
8979;DHT22;4524;51.364;5.448;2022-11-15T11:32:14;12.90;99.90
8979;DHT22;4524;51.364;5.448;2022-11-15T11:34:53;12.90;99.90
8979;DHT22;4524;51.364;5.448;2022-11-15T11:37:29;13.00;99.90
8979;DHT22;4524;51.364;5.448;2022-11-15T11:40:10;13.10;99.90
8979;DHT22;4524;51.364;5.448;2022-11-15T11:42:47;13.20;99.90
8979;DHT22;4524;51.364;5.448;2022-11-15T11:45:37;13.30;99.90
8979;DHT22;4524;51.364;5.448;2022-11-15T11:48:14;13.30;99.90
8979;DHT22;4524;51.364;5.448;2022-11-15T11:50:48;13.30;99.90
8979;DHT22;4524;51.364;5.448;2022-11-15T11:53:24;13.40;99.90
8979;DHT22;4524;51.364;5.448;2022-11-15T11:55:54;13.50;99.90
8979;DHT22;4524;51.364;5.448;2022-11-15T11:58:33;13.50;99.90
8979;DHT22;4524;51.364;5.448;2022-11-15T12:01:11;13.50;99.90
8979;DHT22;4524;51.364;5.448;2022-11-15T12:03:43;13.50;99.90
8979;DHT22;4524;51.364;5.448;2022-11-15T12:06:21;13.50;99.90
8979;DHT22;4524;51.364;5.448;2022-11-15T12:08:54;13.50;99.90
8979;DHT22;4524;51.364;5.448;2022-11-15T12:11:28;13.50;99.90
8979;DHT22;4524;51.364;5.448;2022-11-15T12:14:00;13.50;99.90
8979;DHT22;4524;51.364;5.448;2022-11-15T12:16:30;13.50;99.90
8979;DHT22;4524;51.364;5.448;2022-11-15T12:19:00;13.50;99.90
8979;DHT22;4524;51.364;5.448;2022-11-15T12:21:36;13.60;99.90
8979;DHT22;4524;51.364;5.448;2022-11-15T12:24:12;13.60;99.90
8979;DHT22;4524;51.364;5.448;2022-11-15T12:26:47;13.60;99.90
8979;DHT22;4524;51.364;5.448;2022-11-15T12:29:23;13.50;99.90
8979;DHT22;4524;51.364;5.448;2022-11-15T12:31:55;13.50;99.90
8979;DHT22;4524;51.364;5.448;2022-11-15T12:34:36;13.40;99.90
8979;DHT22;4524;51.364;5.448;2022-11-15T12:40:23;13.30;99.90
8979;DHT22;4524;51.364;5.448;2022-11-15T12:46:02;13.30;99.90
8979;DHT22;4524;51.364;5.448;2022-11-15T12:48:58;13.30;99.90
8979;DHT22;4524;51.364;5.448;2022-11-15T12:55:02;13.30;99.90
8979;DHT22;4524;51.364;5.448;2022-11-15T12:57:38;13.40;99.90
8979;DHT22;4524;51.364;5.448;2022-11-15T13:03:27;13.30;99.90
8979;DHT22;4524;51.364;5.448;2022-11-15T13:06:04;13.30;99.90
8979;DHT22;4524;51.364;5.448;2022-11-15T13:08:40;13.30;99.90
8979;DHT22;4524;51.364;5.448;2022-11-15T13:11:48;13.40;99.90
8979;DHT22;4524;51.364;5.448;2022-11-15T13:14:42;13.50;99.90
8979;DHT22;4524;51.364;5.448;2022-11-15T13:17:20;13.50;99.90
8979;DHT22;4524;51.364;5.448;2022-11-15T13:19:58;13.60;99.90
8979;DHT22;4524;51.364;5.448;2022-11-15T13:22:27;13.50;99.90
8979;DHT22;4524;51.364;5.448;2022-11-15T13:25:18;13.50;99.90
8979;DHT22;4524;51.364;5.448;2022-11-15T13:27:48;13.50;99.90
8979;DHT22;4524;51.364;5.448;2022-11-15T13:30:20;13.60;99.90
8979;DHT22;4524;51.364;5.448;2022-11-15T13:32:50;13.60;99.90
8979;DHT22;4524;51.364;5.448;2022-11-15T13:35:22;13.70;99.90
8979;DHT22;4524;51.364;5.448;2022-11-15T13:37:52;13.70;99.90
8979;DHT22;4524;51.364;5.448;2022-11-15T13:40:26;13.70;99.90
8979;DHT22;4524;51.364;5.448;2022-11-15T13:42:57;13.70;99.90
8979;DHT22;4524;51.364;5.448;2022-11-15T13:45:25;13.70;99.90
8979;DHT22;4524;51.364;5.448;2022-11-15T13:47:55;13.60;99.90
8979;DHT22;4524;51.364;5.448;2022-11-15T13:50:29;13.60;99.90
8979;DHT22;4524;51.364;5.448;2022-11-15T13:53:03;13.60;99.90
8979;DHT22;4524;51.364;5.448;2022-11-15T13:55:31;13.60;99.90
8979;DHT22;4524;51.364;5.448;2022-11-15T13:58:02;13.60;99.90
8979;DHT22;4524;51.364;5.448;2022-11-15T14:00:35;13.50;99.90
8979;DHT22;4524;51.364;5.448;2022-11-15T14:03:15;13.50;99.90
8979;DHT22;4524;51.364;5.448;2022-11-15T14:05:59;13.60;99.90
8979;DHT22;4524;51.364;5.448;2022-11-15T14:08:29;13.60;99.90
8979;DHT22;4524;51.364;5.448;2022-11-15T14:11:16;13.50;99.90
8979;DHT22;4524;51.364;5.448;2022-11-15T14:14:03;13.50;99.90
8979;DHT22;4524;51.364;5.448;2022-11-15T14:16:33;13.50;99.90
8979;DHT22;4524;51.364;5.448;2022-11-15T14:19:03;13.50;99.90
8979;DHT22;4524;51.364;5.448;2022-11-15T14:21:33;13.40;99.90
8979;DHT22;4524;51.364;5.448;2022-11-15T14:24:29;13.40;99.90
8979;DHT22;4524;51.364;5.448;2022-11-15T14:27:16;13.40;99.90
8979;DHT22;4524;51.364;5.448;2022-11-15T14:29:44;13.40;99.90
8979;DHT22;4524;51.364;5.448;2022-11-15T14:32:14;13.40;99.90
8979;DHT22;4524;51.364;5.448;2022-11-15T14:34:42;13.40;99.90
8979;DHT22;4524;51.364;5.448;2022-11-15T14:37:19;13.40;99.90
8979;DHT22;4524;51.364;5.448;2022-11-15T14:39:47;13.40;99.90
8979;DHT22;4524;51.364;5.448;2022-11-15T14:42:16;13.40;99.90
8979;DHT22;4524;51.364;5.448;2022-11-15T14:44:43;13.40;99.90
8979;DHT22;4524;51.364;5.448;2022-11-15T14:47:12;13.40;99.90
8979;DHT22;4524;51.364;5.448;2022-11-15T14:49:40;13.30;99.90
8979;DHT22;4524;51.364;5.448;2022-11-15T14:52:23;13.30;99.90
8979;DHT22;4524;51.364;5.448;2022-11-15T14:54:58;13.30;99.90
8979;DHT22;4524;51.364;5.448;2022-11-15T14:57:26;13.30;99.90
8979;DHT22;4524;51.364;5.448;2022-11-15T14:59:53;13.30;99.90
8979;DHT22;4524;51.364;5.448;2022-11-15T15:02:23;13.30;99.90
8979;DHT22;4524;51.364;5.448;2022-11-15T15:04:51;13.30;99.90
8979;DHT22;4524;51.364;5.448;2022-11-15T15:07:21;13.30;99.90
8979;DHT22;4524;51.364;5.448;2022-11-15T15:09:49;13.30;99.90
8979;DHT22;4524;51.364;5.448;2022-11-15T15:12:19;13.20;99.90
8979;DHT22;4524;51.364;5.448;2022-11-15T15:14:48;13.20;99.90
8979;DHT22;4524;51.364;5.448;2022-11-15T15:17:17;13.20;99.90
8979;DHT22;4524;51.364;5.448;2022-11-15T15:19:45;13.20;99.90
8979;DHT22;4524;51.364;5.448;2022-11-15T15:22:15;13.20;99.90
8979;DHT22;4524;51.364;5.448;2022-11-15T15:24:46;13.20;99.90
8979;DHT22;4524;51.364;5.448;2022-11-15T15:27:14;13.10;99.90
8979;DHT22;4524;51.364;5.448;2022-11-15T15:29:42;13.20;99.90
8979;DHT22;4524;51.364;5.448;2022-11-15T15:32:10;13.10;99.90
8979;DHT22;4524;51.364;5.448;2022-11-15T15:34:39;13.10;99.90
8979;DHT22;4524;51.364;5.448;2022-11-15T15:37:21;13.10;99.90
8979;DHT22;4524;51.364;5.448;2022-11-15T15:39:52;13.10;99.90
8979;DHT22;4524;51.364;5.448;2022-11-15T15:42:21;13.10;99.90
8979;DHT22;4524;51.364;5.448;2022-11-15T15:44:50;13.10;99.90
8979;DHT22;4524;51.364;5.448;2022-11-15T15:47:20;13.10;99.90
8979;DHT22;4524;51.364;5.448;2022-11-15T15:49:49;13.10;99.90
8979;DHT22;4524;51.364;5.448;2022-11-15T15:52:17;13.10;99.90
8979;DHT22;4524;51.364;5.448;2022-11-15T15:54:45;13.10;99.90
8979;DHT22;4524;51.364;5.448;2022-11-15T15:57:15;13.10;99.90
8979;DHT22;4524;51.364;5.448;2022-11-15T15:59:43;13.10;99.90
8979;DHT22;4524;51.364;5.448;2022-11-15T16:02:11;13.20;99.90
8979;DHT22;4524;51.364;5.448;2022-11-15T16:04:39;13.10;99.90
8979;DHT22;4524;51.364;5.448;2022-11-15T16:07:15;13.10;99.90
8979;DHT22;4524;51.364;5.448;2022-11-15T16:09:43;13.10;99.90
8979;DHT22;4524;51.364;5.448;2022-11-15T16:12:33;13.10;99.90
8979;DHT22;4524;51.364;5.448;2022-11-15T16:15:02;13.00;99.90
8979;DHT22;4524;51.364;5.448;2022-11-15T16:17:31;13.00;99.90
8979;DHT22;4524;51.364;5.448;2022-11-15T16:20:00;13.00;99.90
8979;DHT22;4524;51.364;5.448;2022-11-15T16:22:29;13.00;99.90
8979;DHT22;4524;51.364;5.448;2022-11-15T16:24:56;12.90;99.90
8979;DHT22;4524;51.364;5.448;2022-11-15T16:27:24;12.90;99.90
8979;DHT22;4524;51.364;5.448;2022-11-15T16:29:54;12.80;99.90
8979;DHT22;4524;51.364;5.448;2022-11-15T16:32:21;12.80;99.90
8979;DHT22;4524;51.364;5.448;2022-11-15T16:34:49;12.80;99.90
8979;DHT22;4524;51.364;5.448;2022-11-15T16:37:21;12.80;99.90
8979;DHT22;4524;51.364;5.448;2022-11-15T16:39:49;12.70;99.90
8979;DHT22;4524;51.364;5.448;2022-11-15T16:42:22;12.70;1.00
8979;DHT22;4524;51.364;5.448;2022-11-15T16:44:50;12.60;1.00
8979;DHT22;4524;51.364;5.448;2022-11-15T16:47:20;12.60;1.00
8979;DHT22;4524;51.364;5.448;2022-11-15T16:49:48;12.60;1.00
8979;DHT22;4524;51.364;5.448;2022-11-15T16:52:16;12.60;1.00
8979;DHT22;4524;51.364;5.448;2022-11-15T16:54:47;12.60;1.00
8979;DHT22;4524;51.364;5.448;2022-11-15T16:57:15;12.50;1.00
8979;DHT22;4524;51.364;5.448;2022-11-15T16:59:43;12.50;1.00
8979;DHT22;4524;51.364;5.448;2022-11-15T17:02:11;12.50;1.00
8979;DHT22;4524;51.364;5.448;2022-11-15T17:04:40;12.50;1.00
8979;DHT22;4524;51.364;5.448;2022-11-15T17:07:08;12.40;1.00
8979;DHT22;4524;51.364;5.448;2022-11-15T17:09:36;12.40;1.00
8979;DHT22;4524;51.364;5.448;2022-11-15T17:12:05;12.40;1.00
8979;DHT22;4524;51.364;5.448;2022-11-15T17:14:33;12.40;1.00
8979;DHT22;4524;51.364;5.448;2022-11-15T17:17:00;12.40;1.00
8979;DHT22;4524;51.364;5.448;2022-11-15T17:19:28;12.30;1.00
8979;DHT22;4524;51.364;5.448;2022-11-15T17:21:57;12.30;1.00
8979;DHT22;4524;51.364;5.448;2022-11-15T17:24:26;12.20;1.00
8979;DHT22;4524;51.364;5.448;2022-11-15T17:26:54;12.20;12.20
8979;DHT22;4524;51.364;5.448;2022-11-15T17:29:22;12.20;1.00
8979;DHT22;4524;51.364;5.448;2022-11-15T17:31:50;12.20;4.40
8979;DHT22;4524;51.364;5.448;2022-11-15T17:34:17;12.20;34.70
8979;DHT22;4524;51.364;5.448;2022-11-15T17:36:45;12.10;58.90
8979;DHT22;4524;51.364;5.448;2022-11-15T17:39:15;12.10;57.00
8979;DHT22;4524;51.364;5.448;2022-11-15T17:41:44;12.00;68.20
8979;DHT22;4524;51.364;5.448;2022-11-15T17:44:12;12.00;83.40
8979;DHT22;4524;51.364;5.448;2022-11-15T17:46:40;12.00;64.90
8979;DHT22;4524;51.364;5.448;2022-11-15T17:49:08;12.00;95.90
8979;DHT22;4524;51.364;5.448;2022-11-15T17:51:35;12.00;99.90
8979;DHT22;4524;51.364;5.448;2022-11-15T17:54:03;11.90;99.90
8979;DHT22;4524;51.364;5.448;2022-11-15T17:56:33;12.00;99.90